createdAt,value
2022-09-02T00:02:02.511Z,101571.75
2022-09-02T00:04:34.708Z,101568.42
2022-09-02T00:07:06.010Z,101564.83
2022-09-02T00:09:38.802Z,101565.27
2022-09-02T00:12:10.726Z,101562.45
2022-09-02T00:14:40.665Z,101557.97
2022-09-02T00:17:09.163Z,101557.58
2022-09-02T00:19:39.463Z,101555.85
2022-09-02T00:22:08.223Z,101557.64
2022-09-02T00:24:40.479Z,101557.89
2022-09-02T00:27:09.872Z,101563.16
2022-09-02T00:29:41.741Z,101559.13
2022-09-02T00:32:11.179Z,101557.55
2022-09-02T00:34:40.667Z,101559.71
2022-09-02T00:37:10.983Z,101562.73
2022-09-02T00:39:41.698Z,101565.38
2022-09-02T00:42:12.332Z,101566.30
2022-09-02T00:44:43.479Z,101566.98
2022-09-02T00:47:16.437Z,101563.83
2022-09-02T00:49:53.975Z,101563.06
2022-09-02T00:52:47.837Z,101562.17
2022-09-02T00:55:22.843Z,101563.38
2022-09-02T00:58:18.391Z,101559.58
2022-09-02T01:00:53.270Z,101561.48
2022-09-02T01:03:28.357Z,101559.77
2022-09-02T01:06:00.180Z,101560.13
2022-09-02T01:08:34.840Z,101560.60
2022-09-02T01:11:06.762Z,101561.00
2022-09-02T01:13:44.572Z,101559.06
2022-09-02T01:16:30.283Z,101559.27
2022-09-02T01:19:03.895Z,101554.77
2022-09-02T01:21:33.611Z,101557.60
2022-09-02T01:24:06.192Z,101559.73
2022-09-02T01:26:36.917Z,101558.44
2022-09-02T01:29:07.241Z,101557.44
2022-09-02T01:31:37.940Z,101557.86
2022-09-02T01:34:07.791Z,101558.39
2022-09-02T01:36:42.583Z,101561.45
2022-09-02T01:39:14.224Z,101558.95
2022-09-02T01:41:45.002Z,101561.64
2022-09-02T01:44:18.211Z,101559.25
2022-09-02T01:46:52.916Z,101559.02
2022-09-02T01:49:23.573Z,101555.60
2022-09-02T01:51:56.289Z,101552.34
2022-09-02T01:54:26.067Z,101548.64
2022-09-02T01:56:56.391Z,101550.63
2022-09-02T01:59:26.219Z,101551.54
2022-09-02T02:01:55.880Z,101550.08
2022-09-02T02:04:27.292Z,101550.35
2022-09-02T02:06:58.513Z,101550.83
2022-09-02T02:09:28.693Z,101550.68
2022-09-02T02:11:58.433Z,101547.67
2022-09-02T02:14:31.728Z,101546.07
2022-09-02T02:17:02.272Z,101547.77
2022-09-02T02:19:32.592Z,101544.65
2022-09-02T02:22:02.407Z,101544.70
2022-09-02T02:24:31.872Z,101545.02
2022-09-02T02:27:02.423Z,101543.23
2022-09-02T02:29:32.043Z,101539.41
2022-09-02T02:32:02.674Z,101542.63
2022-09-02T02:34:32.149Z,101540.27
2022-09-02T02:37:02.108Z,101545.27
2022-09-02T02:39:30.850Z,101548.18
2022-09-02T02:42:01.012Z,101550.43
2022-09-02T02:44:33.373Z,101551.66
2022-09-02T02:47:04.633Z,101554.05
2022-09-02T02:49:44.167Z,101553.17
2022-09-02T02:52:13.969Z,101554.36
2022-09-02T02:54:44.398Z,101552.20
2022-09-02T02:57:14.937Z,101555.70
2022-09-02T02:59:45.152Z,101554.36
2022-09-02T03:02:14.916Z,101552.89
2022-09-02T03:04:44.472Z,101553.36
2022-09-02T03:07:15.101Z,101554.04
2022-09-02T03:09:45.444Z,101556.23
2022-09-02T03:12:14.838Z,101552.84
2022-09-02T03:14:46.293Z,101554.38
2022-09-02T03:17:17.898Z,101551.95
2022-09-02T03:19:48.977Z,101554.19
2022-09-02T03:22:20.232Z,101555.28
2022-09-02T03:24:50.548Z,101560.85
2022-09-02T03:27:20.071Z,101557.36
2022-09-02T03:29:50.701Z,101561.39
2022-09-02T03:32:20.400Z,101560.94
2022-09-02T03:34:50.321Z,101556.97
2022-09-02T03:37:22.102Z,101555.95
2022-09-02T03:39:51.381Z,101559.36
2022-09-02T03:42:22.560Z,101559.08
2022-09-02T03:44:52.954Z,101560.61
2022-09-02T03:47:25.883Z,101557.08
2022-09-02T03:49:55.794Z,101557.00
2022-09-02T03:52:27.099Z,101555.57
2022-09-02T03:54:58.661Z,101555.79
2022-09-02T03:57:30.223Z,101563.41
2022-09-02T04:00:02.557Z,101556.30
2022-09-02T04:02:34.175Z,101560.57
2022-09-02T04:05:05.168Z,101561.78
2022-09-02T04:07:46.147Z,101563.08
2022-09-02T04:10:17.542Z,101559.89
2022-09-02T04:12:46.890Z,101562.21
2022-09-02T04:15:16.342Z,101561.88
2022-09-02T04:17:45.711Z,101563.25
2022-09-02T04:20:18.697Z,101566.29
2022-09-02T04:22:49.119Z,101563.93
2022-09-02T04:25:18.946Z,101567.82
2022-09-02T04:27:54.886Z,101568.33
2022-09-02T04:30:25.662Z,101568.19
2022-09-02T04:32:56.467Z,101563.73
2022-09-02T04:35:25.571Z,101565.98
2022-09-02T04:37:55.078Z,101569.27
2022-09-02T04:40:24.510Z,101574.17
2022-09-02T04:42:55.254Z,101577.60
2022-09-02T04:45:29.127Z,101572.82
2022-09-02T04:47:58.895Z,101573.50
2022-09-02T04:50:28.532Z,101576.34
2022-09-02T04:53:00.388Z,101579.50
2022-09-02T04:55:29.132Z,101580.03
2022-09-02T04:57:59.239Z,101578.97
2022-09-02T05:00:28.405Z,101573.20
2022-09-02T05:02:57.337Z,101574.07
2022-09-02T05:05:27.656Z,101574.67
2022-09-02T05:07:58.767Z,101575.64
2022-09-02T05:10:29.304Z,101574.71
2022-09-02T05:12:59.878Z,101574.73
2022-09-02T05:15:29.066Z,101577.46
2022-09-02T05:17:57.770Z,101576.45
2022-09-02T05:20:28.742Z,101576.92
2022-09-02T05:22:58.026Z,101580.91
2022-09-02T05:25:26.612Z,101580.39
2022-09-02T05:27:56.055Z,101577.45
2022-09-02T05:30:24.776Z,101579.88
2022-09-02T05:32:53.621Z,101579.36
2022-09-02T05:35:22.405Z,101578.38
2022-09-02T05:37:51.988Z,101579.50
2022-09-02T05:40:22.753Z,101581.98
2022-09-02T05:42:51.992Z,101578.58
2022-09-02T05:45:21.068Z,101582.16
2022-09-02T05:47:50.582Z,101581.35
2022-09-02T05:50:20.728Z,101580.91
2022-09-02T05:52:51.645Z,101582.17
2022-09-02T05:55:20.869Z,101577.95
2022-09-02T05:57:49.432Z,101578.08
2022-09-02T06:00:18.478Z,101582.70
2022-09-02T06:02:55.854Z,101584.48
2022-09-02T06:05:36.086Z,101584.98
2022-09-02T06:08:12.672Z,101584.27
2022-09-02T06:10:43.436Z,101589.55
2022-09-02T06:13:16.260Z,101588.66
2022-09-02T06:15:45.430Z,101593.34
2022-09-02T06:18:15.396Z,101594.13
2022-09-02T06:20:47.952Z,101591.59
2022-09-02T06:23:18.081Z,101589.20
2022-09-02T06:25:49.374Z,101590.86
2022-09-02T06:28:18.835Z,101591.91
2022-09-02T06:30:51.443Z,101587.68
2022-09-02T06:33:24.271Z,101590.48
2022-09-02T06:35:53.079Z,101590.90
2022-09-02T06:38:22.372Z,101592.18
2022-09-02T06:40:54.046Z,101591.83
2022-09-02T06:43:28.942Z,101587.99
2022-09-02T06:46:25.809Z,101589.05
2022-09-02T06:48:56.433Z,101591.98
2022-09-02T06:51:31.887Z,101587.98
2022-09-02T06:54:02.715Z,101592.44
2022-09-02T06:56:34.793Z,101593.69
2022-09-02T06:59:06.309Z,101590.64
2022-09-02T07:01:46.296Z,101591.61
2022-09-02T07:04:37.291Z,101593.27
2022-09-02T07:07:09.051Z,101594.81
2022-09-02T07:09:45.602Z,101595.19
2022-09-02T07:12:20.019Z,101595.42
2022-09-02T07:14:54.775Z,101597.70
2022-09-02T07:17:29.554Z,101602.70
2022-09-02T07:20:04.783Z,101599.54
2022-09-02T07:22:39.524Z,101600.64
2022-09-02T07:25:11.318Z,101600.73
2022-09-02T07:27:40.053Z,101597.59
2022-09-02T07:30:10.504Z,101606.80
2022-09-02T07:32:40.711Z,101604.73
2022-09-02T07:35:10.463Z,101603.41
2022-09-02T07:37:39.488Z,101605.67
2022-09-02T07:40:11.915Z,101605.45
2022-09-02T07:42:40.415Z,101608.02
2022-09-02T07:45:11.390Z,101602.92
2022-09-02T07:47:41.307Z,101601.10
2022-09-02T07:50:17.209Z,101603.38
2022-09-02T07:52:50.686Z,101598.98
2022-09-02T07:55:19.579Z,101604.25
2022-09-02T07:57:49.207Z,101602.95
2022-09-02T08:00:20.567Z,101601.91
2022-09-02T08:02:50.180Z,101604.43
2022-09-02T08:05:24.345Z,101604.52
2022-09-02T08:07:54.003Z,101603.84
2022-09-02T08:10:28.719Z,101599.77
2022-09-02T08:13:03.988Z,101607.85
2022-09-02T08:15:36.549Z,101605.46
2022-09-02T08:18:08.482Z,101606.24
2022-09-02T08:20:42.536Z,101602.46
2022-09-02T08:25:49.194Z,101603.03
2022-09-02T08:28:18.814Z,101603.05
2022-09-02T08:30:47.586Z,101604.29
2022-09-02T08:33:17.418Z,101604.08
2022-09-02T08:35:49.302Z,101599.73
2022-09-02T08:38:18.288Z,101602.59
2022-09-02T08:40:48.875Z,101600.33
2022-09-02T08:43:42.365Z,101602.54
2022-09-02T08:46:17.642Z,101600.63
2022-09-02T08:49:01.802Z,101597.14
2022-09-02T08:51:51.025Z,101597.23
2022-09-02T08:54:43.592Z,101596.88
2022-09-02T08:57:14.072Z,101599.05
2022-09-02T08:59:44.823Z,101599.49
2022-09-02T09:02:30.080Z,101595.54
2022-09-02T09:05:19.702Z,101590.60
2022-09-02T09:12:10.316Z,101585.88
2022-09-02T09:15:01.945Z,101587.86
2022-09-02T09:17:54.085Z,101589.01
2022-09-02T09:20:28.708Z,101586.38
2022-09-02T09:23:03.621Z,101581.38
2022-09-02T09:25:33.362Z,101577.83
2022-09-02T09:28:03.599Z,101580.63
2022-09-02T09:30:32.971Z,101580.17
2022-09-02T09:33:03.921Z,101576.42
2022-09-02T09:35:50.594Z,101569.67
2022-09-02T09:38:32.908Z,101571.90
2022-09-02T09:41:31.726Z,101568.21
2022-09-02T09:44:00.360Z,101569.23
2022-09-02T09:46:32.508Z,101564.82
2022-09-02T09:49:02.303Z,101561.49
2022-09-02T09:51:30.880Z,101561.34
2022-09-02T09:54:18.908Z,101553.69
2022-09-02T09:56:48.649Z,101552.48
2022-09-02T09:59:43.729Z,101550.34
2022-09-02T10:02:25.838Z,101547.95
2022-09-02T10:05:12.140Z,101543.83
2022-09-02T10:07:46.252Z,101543.31
2022-09-02T10:10:20.801Z,101542.45
2022-09-02T10:12:54.069Z,101542.45
2022-09-02T10:15:38.840Z,101542.27
2022-09-02T10:18:35.975Z,101535.52
2022-09-02T10:21:14.948Z,101531.73
2022-09-02T10:24:17.986Z,101531.06
2022-09-02T10:26:54.876Z,101526.92
2022-09-02T10:29:55.044Z,101528.55
2022-09-02T10:32:29.217Z,101524.31
2022-09-02T10:35:06.609Z,101520.11
2022-09-02T10:37:51.270Z,101520.59
2022-09-02T10:40:35.753Z,101518.83
2022-09-02T10:43:38.155Z,101518.13
2022-09-02T10:46:13.096Z,101516.87
2022-09-02T10:49:02.207Z,101519.43
2022-09-02T10:51:41.592Z,101519.65
2022-09-02T10:54:40.136Z,101516.14
2022-09-02T10:57:20.645Z,101512.52
2022-09-02T11:00:17.470Z,101518.04
2022-09-02T11:03:23.256Z,101513.63
2022-09-02T11:05:53.454Z,101511.45
2022-09-02T11:08:40.565Z,101506.33
2022-09-02T11:11:16.712Z,101502.31
2022-09-02T11:13:56.936Z,101499.70
2022-09-02T11:16:41.665Z,101490.80
2022-09-02T11:19:22.954Z,101497.98
2022-09-02T11:22:27.655Z,101491.87
2022-09-02T11:25:23.021Z,101494.70
2022-09-02T11:28:25.660Z,101493.84
2022-09-02T11:31:13.972Z,101493.39
2022-09-02T11:33:45.385Z,101489.93
2022-09-02T11:36:14.281Z,101490.00
2022-09-02T11:39:36.204Z,101485.50
2022-09-02T11:42:29.834Z,101481.45
2022-09-02T11:45:15.332Z,101479.00
2022-09-02T11:48:24.906Z,101480.71
2022-09-02T11:51:05.456Z,101477.48
2022-09-02T11:53:42.181Z,101478.34
2022-09-02T11:56:25.798Z,101470.52
2022-09-02T11:58:54.496Z,101462.17
2022-09-02T12:01:43.814Z,101463.74
2022-09-02T12:07:08.761Z,101461.05
2022-09-02T12:09:56.952Z,101454.15
2022-09-02T12:12:37.588Z,101448.13
2022-09-02T12:15:08.395Z,101449.29
2022-09-02T12:17:39.901Z,101451.89
2022-09-02T12:20:31.731Z,101451.92
2022-09-02T12:23:00.591Z,101448.93
2022-09-02T12:25:39.358Z,101449.06
2022-09-02T12:28:30.807Z,101446.96
2022-09-02T12:31:08.628Z,101442.21
2022-09-02T12:33:41.957Z,101438.93
2022-09-02T12:36:36.312Z,101429.08
2022-09-02T12:39:23.269Z,101435.53
2022-09-02T12:42:06.770Z,101431.33
2022-09-02T12:44:45.723Z,101431.05
2022-09-02T12:47:20.322Z,101433.11
2022-09-02T12:50:07.515Z,101437.90
2022-09-02T12:52:36.378Z,101437.30
2022-09-02T12:55:26.485Z,101439.63
2022-09-02T12:58:11.066Z,101436.27
2022-09-02T13:00:59.136Z,101439.37
2022-09-02T13:03:44.059Z,101436.55
2022-09-02T13:06:36.723Z,101434.05
2022-09-02T13:09:23.692Z,101432.18
2022-09-02T13:12:21.436Z,101426.31
2022-09-02T13:15:03.713Z,101423.41
2022-09-02T13:18:01.967Z,101419.20
2022-09-02T13:20:56.632Z,101425.34
2022-09-02T13:23:43.355Z,101422.67
2022-09-02T13:26:53.143Z,101424.17
2022-09-02T13:29:52.220Z,101421.16
2022-09-02T13:32:20.952Z,101419.08
2022-09-02T13:34:53.136Z,101416.68
2022-09-02T13:37:41.208Z,101413.61
2022-09-02T13:40:22.332Z,101406.38
2022-09-02T13:42:53.897Z,101403.41
2022-09-02T13:45:26.601Z,101400.12
2022-09-02T13:48:00.809Z,101402.53
2022-09-02T13:50:32.162Z,101398.34
2022-09-02T13:53:53.596Z,101394.56
2022-09-02T13:55:56.167Z,101390.77
2022-09-02T13:58:31.297Z,101387.36
2022-09-02T14:01:27.972Z,101393.55
2022-09-02T14:04:00.212Z,101391.96
2022-09-02T14:06:33.795Z,101387.70
2022-09-02T14:09:06.887Z,101382.85
2022-09-02T14:11:42.536Z,101380.89
2022-09-02T14:14:16.993Z,101381.86
2022-09-02T14:16:46.048Z,101379.46
2022-09-02T14:19:17.709Z,101379.76
2022-09-02T14:21:56.935Z,101373.55
2022-09-02T14:24:31.105Z,101370.85
2022-09-02T14:27:00.930Z,101372.41
2022-09-02T14:29:34.061Z,101371.53
2022-09-02T14:32:22.719Z,101371.10
2022-09-02T14:35:15.556Z,101371.17
2022-09-02T14:37:53.773Z,101372.09
2022-09-02T14:40:40.572Z,101370.27
2022-09-02T14:43:14.547Z,101367.02
2022-09-02T14:45:48.046Z,101371.95
2022-09-02T14:48:24.174Z,101369.15
2022-09-02T14:51:05.594Z,101371.08
2022-09-02T14:53:37.880Z,101365.92
2022-09-02T14:56:07.000Z,101364.73
2022-09-02T14:58:35.413Z,101369.55
2022-09-02T15:01:05.049Z,101364.20
2022-09-02T15:03:39.099Z,101366.15
2022-09-02T15:06:09.857Z,101369.58
2022-09-02T15:08:40.428Z,101365.20
2022-09-02T15:11:08.933Z,101366.49
2022-09-02T15:13:37.432Z,101368.08
2022-09-02T15:16:06.131Z,101371.77
2022-09-02T15:18:34.633Z,101366.17
2022-09-02T15:21:03.598Z,101369.96
2022-09-02T15:23:36.081Z,101365.77
2022-09-02T15:26:05.917Z,101358.60
2022-09-02T15:28:35.178Z,101358.45
2022-09-02T15:31:03.849Z,101353.38
2022-09-02T15:33:32.540Z,101355.54
2022-09-02T15:36:12.236Z,101355.15
2022-09-02T15:38:41.602Z,101354.55
2022-09-02T15:41:22.967Z,101355.89
2022-09-02T15:43:54.450Z,101353.90
2022-09-02T15:46:29.038Z,101352.39
2022-09-02T15:49:02.801Z,101349.64
2022-09-02T15:51:32.905Z,101352.96
2022-09-02T15:54:04.342Z,101352.15
2022-09-02T15:56:36.311Z,101354.12
2022-09-02T15:59:13.070Z,101351.45
2022-09-02T16:01:45.695Z,101352.61
2022-09-02T16:04:15.995Z,101358.15
2022-09-02T16:06:48.372Z,101360.44
2022-09-02T16:09:19.052Z,101359.29
2022-09-02T16:11:54.046Z,101358.67
2022-09-02T16:14:24.801Z,101354.88
2022-09-02T16:16:58.785Z,101348.16
2022-09-02T16:19:30.388Z,101347.00
2022-09-02T16:21:59.648Z,101349.92
2022-09-02T16:24:28.649Z,101344.19
2022-09-02T16:26:58.030Z,101342.45
2022-09-02T16:29:28.473Z,101341.57
2022-09-02T16:32:14.286Z,101339.79
2022-09-02T16:34:47.097Z,101339.36
2022-09-02T16:37:15.778Z,101342.55
2022-09-02T16:39:44.246Z,101341.19
2022-09-02T16:42:12.677Z,101342.02
2022-09-02T16:44:42.455Z,101340.76
2022-09-02T16:47:12.863Z,101348.34
2022-09-02T16:49:42.860Z,101348.59
2022-09-02T16:52:11.220Z,101348.66
2022-09-02T16:54:40.986Z,101346.33
2022-09-02T16:57:10.447Z,101348.02
2022-09-02T16:59:38.797Z,101345.44
2022-09-02T17:02:07.316Z,101343.25
2022-09-02T17:04:35.726Z,101341.30
2022-09-02T17:07:04.586Z,101343.69
2022-09-02T17:09:32.955Z,101344.69
2022-09-02T17:12:01.242Z,101344.99
2022-09-02T17:14:29.609Z,101345.84
2022-09-02T17:16:58.322Z,101343.11
2022-09-02T17:19:32.051Z,101345.64
2022-09-02T17:22:01.891Z,101348.25
2022-09-02T17:24:32.218Z,101348.33
2022-09-02T17:27:01.928Z,101348.72
2022-09-02T17:32:21.423Z,101349.61
2022-09-02T17:34:50.598Z,101347.72
2022-09-02T17:37:20.348Z,101352.04
2022-09-02T17:39:49.926Z,101348.35
2022-09-02T17:42:20.366Z,101350.47
2022-09-02T17:44:49.356Z,101351.11
2022-09-02T17:47:22.938Z,101351.05
2022-09-02T17:49:52.206Z,101357.28
2022-09-02T17:52:24.845Z,101359.31
2022-09-02T17:54:54.728Z,101364.70
2022-09-02T17:57:24.667Z,101366.83
2022-09-02T18:00:09.949Z,101363.09
2022-09-02T18:02:55.453Z,101366.54
2022-09-02T18:05:37.829Z,101368.95
2022-09-02T18:08:13.226Z,101369.48
2022-09-02T18:10:57.801Z,101373.45
2022-09-02T18:13:41.692Z,101370.08
2022-09-02T18:16:33.826Z,101370.08
2022-09-02T18:19:14.177Z,101369.36
2022-09-02T18:22:11.678Z,101372.79
2022-09-02T18:24:51.565Z,101370.64
2022-09-02T18:27:44.258Z,101373.15
2022-09-02T18:30:18.865Z,101373.70
2022-09-02T18:32:59.530Z,101375.49
2022-09-02T18:35:51.867Z,101375.21
2022-09-02T18:39:09.913Z,101376.70
2022-09-02T18:41:44.699Z,101381.89
2022-09-02T18:44:37.298Z,101382.86
2022-09-02T18:47:23.899Z,101390.32
2022-09-02T18:49:54.969Z,101391.80
2022-09-02T18:52:28.308Z,101389.72
2022-09-02T18:55:16.904Z,101386.50
2022-09-02T18:58:12.614Z,101383.13
2022-09-02T19:00:51.212Z,101377.46
2022-09-02T19:03:20.852Z,101377.92
2022-09-02T19:05:49.825Z,101382.44
2022-09-02T19:08:36.232Z,101383.86
2022-09-02T19:11:12.418Z,101381.65
2022-09-02T19:13:56.198Z,101379.48
2022-09-02T19:16:33.951Z,101379.77
2022-09-02T19:19:04.028Z,101383.77
2022-09-02T19:21:40.917Z,101388.15
2022-09-02T19:24:14.737Z,101389.04
2022-09-02T19:26:45.107Z,101385.35
2022-09-02T19:29:17.147Z,101388.40
2022-09-02T19:31:48.265Z,101386.15
2022-09-02T19:34:18.190Z,101384.80
2022-09-02T19:36:50.491Z,101386.49
2022-09-02T19:39:19.601Z,101388.09
2022-09-02T19:41:49.423Z,101390.64
2022-09-02T19:44:18.172Z,101391.91
2022-09-02T19:49:41.410Z,101399.73
2022-09-02T19:52:12.615Z,101399.79
2022-09-02T19:54:42.108Z,101407.52
2022-09-02T19:57:10.875Z,101404.57
2022-09-02T19:59:39.552Z,101406.80
2022-09-02T20:02:08.422Z,101410.95
2022-09-02T20:04:37.344Z,101413.59
2022-09-02T20:07:06.031Z,101412.09
2022-09-02T20:09:34.614Z,101409.39
2022-09-02T20:12:03.403Z,101411.54
2022-09-02T20:14:34.842Z,101414.99
2022-09-02T20:17:06.515Z,101415.31
2022-09-02T20:19:35.403Z,101423.89
2022-09-02T20:22:05.928Z,101422.23
2022-09-02T20:24:35.319Z,101424.77
2022-09-02T20:27:12.930Z,101427.11
2022-09-02T20:30:02.854Z,101428.53
2022-09-02T20:32:40.656Z,101426.92
2022-09-02T20:35:24.459Z,101426.94
2022-09-02T20:38:03.584Z,101429.59
2022-09-02T20:40:46.384Z,101430.20
2022-09-02T20:43:21.457Z,101432.36
2022-09-02T20:46:28.257Z,101429.73
2022-09-02T20:49:22.610Z,101427.09
2022-09-02T20:52:03.502Z,101427.42
2022-09-02T20:54:41.180Z,101427.17
2022-09-02T20:57:25.851Z,101427.61
2022-09-02T21:00:06.807Z,101424.54
2022-09-02T21:02:57.417Z,101425.39
2022-09-02T21:05:38.067Z,101427.73
2022-09-02T21:08:23.028Z,101426.23
2022-09-02T21:11:00.840Z,101426.04
2022-09-02T21:13:49.538Z,101426.73
2022-09-02T21:16:28.749Z,101425.40
2022-09-02T21:19:08.798Z,101428.83
2022-09-02T21:22:05.522Z,101430.48
2022-09-02T21:24:57.282Z,101426.21
2022-09-02T21:27:28.935Z,101428.48
2022-09-02T21:30:02.128Z,101427.77
2022-09-02T21:32:40.505Z,101430.58
2022-09-02T21:35:36.355Z,101434.77
2022-09-02T21:38:13.133Z,101430.41
2022-09-02T21:40:51.436Z,101434.24
2022-09-02T21:43:56.036Z,101432.25
2022-09-02T21:47:10.128Z,101426.91
2022-09-02T21:50:22.091Z,101435.63
2022-09-02T21:53:01.351Z,101434.00
2022-09-02T21:56:09.557Z,101435.29
2022-09-02T21:59:10.749Z,101432.81
2022-09-02T22:01:56.759Z,101431.27
2022-09-02T22:04:44.337Z,101433.50
2022-09-02T22:07:29.793Z,101434.38
2022-09-02T22:10:20.209Z,101436.50
2022-09-02T22:12:52.744Z,101442.38
2022-09-02T22:15:35.789Z,101440.64
2022-09-02T22:18:40.849Z,101447.64
2022-09-02T22:21:48.642Z,101441.70
2022-09-02T22:24:20.355Z,101439.21
2022-09-02T22:27:06.973Z,101436.53
2022-09-02T22:29:44.287Z,101435.86
2022-09-02T22:32:20.714Z,101435.06
2022-09-02T22:35:42.610Z,101429.63
2022-09-02T22:38:28.746Z,101422.59
2022-09-02T22:41:15.004Z,101424.29
2022-09-02T22:43:55.269Z,101427.30
2022-09-02T22:47:08.821Z,101426.17
2022-09-02T22:50:16.911Z,101428.40
2022-09-02T22:52:46.531Z,101427.46
2022-09-02T22:55:50.989Z,101430.73
2022-09-02T22:58:21.892Z,101427.20
2022-09-02T23:01:18.376Z,101425.61
2022-09-02T23:04:03.225Z,101426.97
2022-09-02T23:06:34.293Z,101427.42
2022-09-02T23:09:09.837Z,101430.02
2022-09-02T23:11:41.736Z,101429.69
2022-09-02T23:14:29.574Z,101434.34
2022-09-02T23:17:26.465Z,101435.10
2022-09-02T23:20:21.638Z,101432.95
2022-09-02T23:23:28.014Z,101431.55
2022-09-02T23:26:10.922Z,101431.61
2022-09-02T23:29:02.644Z,101434.00
2022-09-02T23:32:09.533Z,101437.20
2022-09-02T23:35:03.418Z,101436.98
2022-09-02T23:37:53.085Z,101438.35
2022-09-02T23:40:34.406Z,101437.02
2022-09-02T23:43:03.821Z,101438.39
2022-09-02T23:45:34.629Z,101432.80
2022-09-02T23:48:06.059Z,101435.20
2022-09-02T23:50:58.356Z,101432.95
2022-09-02T23:53:41.171Z,101428.55
2022-09-02T23:56:36.902Z,101428.08
2022-09-02T23:59:37.193Z,101420.54
